createdAt,value
2018-01-14T00:01:30.998Z,0.43
2018-01-14T00:07:34.499Z,0.29
2018-01-14T00:13:38.069Z,0.25
2018-01-14T00:19:42.332Z,0.15
2018-01-14T00:25:46.885Z,0.17
2018-01-14T00:31:50.413Z,0.11
2018-01-14T00:37:54.013Z,0.06
2018-01-14T00:43:58.471Z,0.07
2018-01-14T00:50:01.962Z,0.09
2018-01-14T00:56:06.197Z,0.06
2018-01-14T01:02:09.667Z,0.01
2018-01-14T01:08:13.150Z,0.13
2018-01-14T01:14:17.376Z,0.10
2018-01-14T01:20:20.873Z,0.10
2018-01-14T01:26:25.472Z,0.15
2018-01-14T01:32:29.058Z,0.10
2018-01-14T01:38:32.556Z,0.18
2018-01-14T01:44:36.803Z,0.22
2018-01-14T01:50:40.266Z,0.19
2018-01-14T01:56:43.746Z,0.19
2018-01-14T02:02:47.219Z,0.15
2018-01-14T02:08:50.705Z,0.10
2018-01-14T02:14:54.320Z,0.01
2018-01-14T02:20:58.649Z,0.01
2018-01-14T02:27:02.149Z,-0.07
2018-01-14T02:33:05.671Z,-0.09
2018-01-14T02:39:09.947Z,-0.10
2018-01-14T02:45:14.192Z,-0.10
2018-01-14T02:51:17.676Z,-0.08
2018-01-14T02:57:21.210Z,-0.12
2018-01-14T03:03:25.163Z,-0.11
2018-01-14T03:09:28.698Z,-0.22
2018-01-14T03:15:32.201Z,-0.16
2018-01-14T03:21:36.468Z,-0.19
2018-01-14T03:27:39.961Z,-0.21
2018-01-14T03:33:43.500Z,-0.31
2018-01-14T03:39:47.048Z,-0.36
2018-01-14T03:45:51.336Z,-0.29
2018-01-14T03:51:55.333Z,-0.34
2018-01-14T03:57:58.936Z,-0.27
2018-01-14T04:04:03.260Z,-0.20
2018-01-14T04:10:06.761Z,-0.19
2018-01-14T04:16:11.068Z,-0.10
2018-01-14T04:22:14.586Z,-0.11
2018-01-14T04:28:18.845Z,-0.14
2018-01-14T04:34:22.435Z,-0.02
2018-01-14T04:40:26.123Z,0.03
2018-01-14T04:46:29.861Z,0.05
2018-01-14T04:52:33.494Z,0.02
2018-01-14T04:58:37.743Z,0.10
2018-01-14T05:04:41.271Z,0.11
2018-01-14T05:10:44.888Z,0.16
2018-01-14T05:16:49.432Z,0.17
2018-01-14T05:22:52.944Z,0.28
2018-01-14T05:28:57.067Z,0.28
2018-01-14T05:35:00.782Z,0.29
2018-01-14T05:41:04.482Z,0.34
2018-01-14T05:56:53.313Z,0.34
2018-01-14T06:02:57.267Z,0.37
2018-01-14T06:09:01.516Z,0.31
2018-01-14T06:15:05.026Z,0.28
2018-01-14T06:21:09.298Z,0.34
2018-01-14T06:27:13.687Z,0.40
2018-01-14T06:33:17.272Z,0.28
2018-01-14T06:39:20.930Z,0.33
2018-01-14T06:45:24.557Z,0.34
2018-01-14T06:51:28.016Z,0.25
2018-01-14T06:57:31.533Z,0.30
2018-01-14T07:03:35.779Z,0.36
2018-01-14T07:09:39.334Z,0.39
2018-01-14T07:15:42.825Z,0.38
2018-01-14T07:21:47.048Z,0.44
2018-01-14T07:27:50.508Z,0.52
2018-01-14T07:33:54.882Z,0.45
2018-01-14T07:39:58.386Z,0.47
2018-01-14T07:46:01.878Z,0.48
2018-01-14T07:52:05.381Z,0.46
2018-01-14T07:58:09.638Z,0.57
2018-01-14T08:04:14.677Z,0.60
2018-01-14T08:10:18.393Z,0.64
2018-01-14T08:16:21.902Z,0.70
2018-01-14T08:22:25.594Z,0.82
2018-01-14T08:28:29.246Z,0.85
2018-01-14T08:34:32.867Z,0.90
2018-01-14T08:40:36.440Z,1.06
2018-01-14T08:46:40.029Z,1.17
2018-01-14T08:52:43.482Z,1.12
2018-01-14T08:58:46.947Z,1.09
2018-01-14T09:04:51.215Z,0.98
2018-01-14T09:10:55.609Z,0.84
2018-01-14T09:16:59.193Z,0.75
2018-01-14T09:23:02.890Z,0.65
2018-01-14T09:29:06.403Z,0.73
2018-01-14T09:35:09.879Z,0.62
2018-01-14T09:41:13.409Z,0.70
2018-01-14T09:47:16.896Z,0.68
2018-01-14T09:53:20.395Z,0.59
2018-01-14T09:59:24.031Z,0.76
2018-01-14T10:05:28.070Z,0.84
2018-01-14T10:11:31.588Z,0.96
2018-01-14T10:17:35.786Z,0.92
2018-01-14T10:23:39.536Z,1.09
2018-01-14T10:29:43.090Z,1.18
2018-01-14T10:35:46.731Z,1.11
2018-01-14T10:41:50.241Z,1.32
2018-01-14T10:47:53.876Z,1.31
2018-01-14T10:53:57.496Z,1.34
2018-01-14T11:00:01.111Z,1.39
2018-01-14T11:06:04.574Z,1.62
2018-01-14T11:12:08.789Z,1.53
2018-01-14T11:18:12.289Z,1.87
2018-01-14T11:24:15.752Z,1.78
2018-01-14T11:30:20.152Z,1.82
2018-01-14T11:36:23.761Z,1.90
2018-01-14T11:42:27.490Z,1.84
2018-01-14T11:48:31.039Z,2.18
2018-01-14T11:54:34.510Z,2.21
2018-01-14T12:00:37.950Z,2.38
2018-01-14T12:06:41.410Z,2.31
2018-01-14T12:12:44.950Z,2.43
2018-01-14T12:18:48.422Z,2.65
2018-01-14T12:24:51.885Z,2.68
2018-01-14T12:30:55.413Z,2.92
2018-01-14T12:36:59.048Z,2.94
2018-01-14T12:43:02.510Z,2.90
2018-01-14T12:49:05.965Z,2.59
2018-01-14T12:55:09.585Z,2.45
2018-01-14T13:01:13.114Z,2.49
2018-01-14T13:07:16.576Z,2.46
2018-01-14T13:13:20.109Z,2.55
2018-01-14T13:19:23.792Z,2.49
2018-01-14T13:25:27.565Z,2.62
2018-01-14T13:31:31.810Z,2.54
2018-01-14T13:37:35.290Z,2.50
2018-01-14T13:43:38.758Z,2.57
2018-01-14T13:49:42.985Z,2.57
2018-01-14T13:55:47.242Z,2.36
2018-01-14T14:01:50.715Z,2.29
2018-01-14T14:07:54.324Z,2.34
2018-01-14T14:13:58.585Z,2.12
2018-01-14T14:20:02.814Z,1.86
2018-01-14T14:26:06.307Z,1.75
2018-01-14T14:32:10.665Z,1.79
2018-01-14T14:38:14.121Z,1.71
2018-01-14T14:44:17.579Z,1.54
2018-01-14T14:50:21.094Z,1.43
2018-01-14T14:56:25.175Z,1.33
2018-01-14T15:02:28.670Z,1.21
2018-01-14T15:08:32.887Z,1.01
2018-01-14T15:14:36.615Z,0.90
2018-01-14T15:20:40.092Z,0.84
2018-01-14T15:26:43.571Z,0.93
2018-01-14T15:32:47.083Z,0.74
2018-01-14T15:38:50.535Z,0.55
2018-01-14T15:44:54.240Z,0.47
2018-01-14T15:50:57.771Z,0.35
2018-01-14T15:57:01.521Z,0.34
2018-01-14T16:03:05.062Z,0.38
2018-01-14T16:09:08.547Z,0.38
2018-01-14T16:15:11.998Z,0.36
2018-01-14T16:21:15.489Z,0.28
2018-01-14T16:27:19.065Z,0.22
2018-01-14T16:33:22.558Z,0.21
2018-01-14T16:39:26.277Z,0.12
2018-01-14T16:45:29.849Z,0.03
2018-01-14T16:51:33.319Z,0.13
2018-01-14T16:57:36.796Z,0.16
2018-01-14T17:03:40.249Z,0.19
2018-01-14T17:09:43.718Z,0.15
2018-01-14T17:15:47.174Z,0.32
2018-01-14T17:21:51.389Z,0.34
2018-01-14T17:27:54.854Z,0.31
2018-01-14T17:33:59.122Z,0.34
2018-01-14T17:40:02.643Z,0.19
2018-01-14T17:46:06.876Z,0.13
2018-01-14T17:52:10.447Z,0.22
2018-01-14T17:58:13.970Z,0.28
2018-01-14T18:04:17.455Z,0.06
2018-01-14T18:10:21.039Z,0.01
2018-01-14T18:16:25.468Z,-0.09
2018-01-14T18:22:29.014Z,-0.13
2018-01-14T18:28:32.798Z,-0.11
2018-01-14T18:34:36.295Z,-0.09
2018-01-14T18:40:39.760Z,-0.13
2018-01-14T18:46:43.950Z,-0.25
2018-01-14T18:52:47.414Z,-0.34
2018-01-14T18:58:50.859Z,-0.37
2018-01-14T19:04:54.960Z,-0.39
2018-01-14T19:10:58.677Z,-0.56
2018-01-14T19:17:02.173Z,-0.73
2018-01-14T19:23:05.657Z,-0.81
2018-01-14T19:29:09.134Z,-0.97
2018-01-14T19:35:12.620Z,-1.09
2018-01-14T19:41:16.123Z,-1.13
2018-01-14T19:47:19.598Z,-1.28
2018-01-14T19:53:23.112Z,-1.36
2018-01-14T19:59:28.368Z,-1.40
2018-01-14T20:05:32.017Z,-1.46
2018-01-14T20:11:35.495Z,-1.49
2018-01-14T20:17:39.000Z,-1.54
2018-01-14T20:23:42.493Z,-1.57
2018-01-14T20:29:45.958Z,-1.67
2018-01-14T20:35:49.428Z,-1.63
2018-01-14T20:41:52.945Z,-1.57
2018-01-14T20:47:56.705Z,-1.60
2018-01-14T20:54:00.301Z,-1.78
2018-01-14T21:00:04.515Z,-1.87
2018-01-14T21:06:08.092Z,-1.90
2018-01-14T21:12:11.671Z,-1.97
2018-01-14T21:18:15.124Z,-2.03
2018-01-14T21:24:19.376Z,-1.95
2018-01-14T21:30:24.387Z,-1.91
2018-01-14T21:36:28.396Z,-1.77
2018-01-14T21:42:32.719Z,-1.67
2018-01-14T21:48:36.190Z,-1.56
2018-01-14T21:54:40.701Z,-1.42
2018-01-14T22:00:44.209Z,-1.32
2018-01-14T22:06:47.695Z,-1.17
2018-01-14T22:12:51.190Z,-1.25
2018-01-14T22:18:54.777Z,-0.96
2018-01-14T22:24:58.739Z,-1.14
2018-01-14T22:31:03.045Z,-1.34
2018-01-14T22:37:06.534Z,-1.29
2018-01-14T22:43:10.106Z,-1.36
2018-01-14T22:49:13.628Z,-1.28
2018-01-14T22:55:17.133Z,-1.37
2018-01-14T23:01:20.656Z,-1.48
2018-01-14T23:07:24.293Z,-1.47
2018-01-14T23:13:27.926Z,-1.42
2018-01-14T23:26:01.545Z,-1.55
2018-01-14T23:32:05.036Z,-1.49
2018-01-14T23:38:08.502Z,-1.47
2018-01-14T23:44:11.985Z,-1.56
2018-01-14T23:50:15.455Z,-1.59
2018-01-14T23:56:19.096Z,-1.62
